Bay Islands (Utila), Honduras
Current Conditions -  °F | °C
As of 1:00 PM on Sunday 21 Dec 2014 (Local Time) from MHLC Reporting Station
Scattered Clouds Scattered Clouds  
Wind Chill: 28°   Ceiling: Unl
Heat Index: 31°   Visibility: 6mi
Dew Point: 23°   Wind: 7mph
Humidity: 74%   Direction: 350°N
Pressure: 29.94"   Gusts: NA
Location:  16.1°N, 86.95°W
Report Text: MHLC 211900Z 35006KT 9999 SCT020 28/23 Q1014 A2994 NOSIG
Loading
Personal Weather Stations






























Interactive Weather Map New forecast layout! Learn more

10-Day Weather Forecast

Advertisements
Track Severe Weather on mobile